createdAt,value
2018-11-27T00:01:32.365Z,101316.59
2018-11-27T00:04:01.356Z,101317.31
2018-11-27T00:06:30.401Z,101313.66
2018-11-27T00:08:59.515Z,101313.94
2018-11-27T00:11:28.496Z,101319.97
2018-11-27T00:13:57.333Z,101318.73
2018-11-27T00:16:26.588Z,101320.34
2018-11-27T00:18:55.427Z,101320.77
2018-11-27T00:21:24.288Z,101324.38
2018-11-27T00:23:53.263Z,101329.98
2018-11-27T00:26:22.478Z,101335.81
2018-11-27T00:28:51.677Z,101330.67
2018-11-27T00:31:20.614Z,101329.70
2018-11-27T00:33:49.457Z,101330.98
2018-11-27T00:36:18.340Z,101334.87
2018-11-27T00:38:47.464Z,101339.55
2018-11-27T00:41:16.488Z,101339.82
2018-11-27T00:43:45.514Z,101339.98
2018-11-27T00:46:14.433Z,101343.33
2018-11-27T00:48:43.274Z,101351.30
2018-11-27T00:51:12.155Z,101353.22
2018-11-27T00:53:41.020Z,101347.14
2018-11-27T00:56:09.909Z,101347.95
2018-11-27T00:58:39.083Z,101352.81
2018-11-27T01:01:07.957Z,101358.08
2018-11-27T01:03:36.801Z,101351.87
2018-11-27T01:06:05.693Z,101357.36
2018-11-27T01:08:35.008Z,101366.97
2018-11-27T01:11:03.913Z,101367.72
2018-11-27T01:13:33.052Z,101369.41
2018-11-27T01:16:01.886Z,101368.09
2018-11-27T01:18:30.986Z,101374.47
2018-11-27T01:20:59.994Z,101372.88
2018-11-27T01:23:28.883Z,101373.92
2018-11-27T01:25:57.805Z,101374.67
2018-11-27T01:28:26.647Z,101369.98
2018-11-27T01:30:55.488Z,101370.61
2018-11-27T01:33:24.527Z,101376.72
2018-11-27T01:35:53.704Z,101379.48
2018-11-27T01:38:22.677Z,101373.98
2018-11-27T01:40:51.730Z,101379.63
2018-11-27T01:43:20.578Z,101370.89
2018-11-27T01:45:49.429Z,101372.41
2018-11-27T01:48:18.276Z,101374.89
2018-11-27T01:50:47.146Z,101374.37
2018-11-27T01:53:16.020Z,101376.72
2018-11-27T01:55:44.829Z,101375.41
2018-11-27T01:58:13.631Z,101377.15
2018-11-27T02:00:42.524Z,101376.20
2018-11-27T02:03:11.416Z,101376.77
2018-11-27T02:05:40.291Z,101383.82
2018-11-27T02:08:09.143Z,101386.35
2018-11-27T02:10:37.986Z,101375.55
2018-11-27T02:13:07.119Z,101377.62
2018-11-27T02:15:35.958Z,101376.41
2018-11-27T02:18:04.910Z,101379.30
2018-11-27T02:20:33.843Z,101384.52
2018-11-27T02:23:03.004Z,101380.25
2018-11-27T02:25:32.030Z,101383.72
2018-11-27T02:28:00.931Z,101383.03
2018-11-27T02:30:29.880Z,101387.20
2018-11-27T02:32:58.727Z,101392.27
2018-11-27T02:35:27.713Z,101395.38
2018-11-27T02:37:57.940Z,101396.88
2018-11-27T02:40:27.028Z,101399.84
2018-11-27T02:42:55.870Z,101404.11
2018-11-27T02:45:25.919Z,101413.64
2018-11-27T02:47:55.385Z,101410.64
2018-11-27T02:50:25.347Z,101414.53
2018-11-27T02:52:54.654Z,101413.64
2018-11-27T02:55:26.063Z,101421.20
2018-11-27T02:57:55.231Z,101421.05
2018-11-27T03:00:26.124Z,101422.89
2018-11-27T03:02:55.232Z,101421.42
2018-11-27T03:05:29.825Z,101422.93
2018-11-27T03:07:58.725Z,101422.73
2018-11-27T03:10:27.558Z,101425.14
2018-11-27T03:12:56.463Z,101422.98
2018-11-27T03:15:25.580Z,101420.83
2018-11-27T03:17:54.406Z,101425.37
2018-11-27T03:20:23.293Z,101423.87
2018-11-27T03:22:52.248Z,101430.53
2018-11-27T03:25:22.193Z,101428.23
2018-11-27T03:27:52.567Z,101425.59
2018-11-27T03:30:22.388Z,101429.45
2018-11-27T03:32:51.166Z,101433.86
2018-11-27T03:35:21.970Z,101433.48
2018-11-27T03:37:51.198Z,101436.30
2018-11-27T03:40:21.045Z,101445.22
2018-11-27T03:42:50.148Z,101446.44
2018-11-27T03:45:19.947Z,101445.25
2018-11-27T03:47:49.187Z,101458.67
2018-11-27T03:50:29.672Z,101447.04
2018-11-27T03:52:58.488Z,101453.27
2018-11-27T03:55:27.477Z,101457.73
2018-11-27T03:57:56.594Z,101451.48
2018-11-27T04:00:30.711Z,101457.77
2018-11-27T04:03:03.505Z,101458.52
2018-11-27T04:05:32.319Z,101456.05
2018-11-27T04:08:01.206Z,101453.42
2018-11-27T04:10:30.095Z,101457.73
2018-11-27T04:12:58.941Z,101456.36
2018-11-27T04:15:27.782Z,101457.61
2018-11-27T04:17:56.935Z,101460.58
2018-11-27T04:20:26.220Z,101461.80
2018-11-27T04:22:55.397Z,101457.20
2018-11-27T04:25:24.570Z,101462.84
2018-11-27T04:27:53.935Z,101473.72
2018-11-27T04:30:23.419Z,101466.59
2018-11-27T04:32:52.658Z,101466.59
2018-11-27T04:35:22.468Z,101471.19
2018-11-27T04:37:51.258Z,101478.05
2018-11-27T04:40:21.114Z,101482.17
2018-11-27T04:42:50.080Z,101478.42
2018-11-27T04:45:20.259Z,101483.23
2018-11-27T04:47:49.495Z,101479.58
2018-11-27T04:50:18.784Z,101483.61
2018-11-27T04:52:47.691Z,101489.71
2018-11-27T04:55:17.495Z,101489.52
2018-11-27T04:57:47.762Z,101496.00
2018-11-27T05:00:21.736Z,101498.34
2018-11-27T05:02:50.641Z,101502.66
2018-11-27T05:05:19.954Z,101505.88
2018-11-27T05:07:48.904Z,101508.20
2018-11-27T05:10:20.352Z,101507.42
2018-11-27T05:12:49.274Z,101508.11
2018-11-27T05:15:24.727Z,101509.81
2018-11-27T05:17:56.490Z,101520.70
2018-11-27T05:20:25.311Z,101515.80
2018-11-27T05:22:54.177Z,101519.95
2018-11-27T05:25:23.506Z,101517.23
2018-11-27T05:27:55.389Z,101527.45
2018-11-27T05:30:25.475Z,101526.80
2018-11-27T05:32:54.286Z,101526.68
2018-11-27T05:35:26.659Z,101525.98
2018-11-27T05:37:55.522Z,101532.16
2018-11-27T05:40:25.371Z,101527.94
2018-11-27T05:42:59.666Z,101534.04
2018-11-27T05:45:28.789Z,101535.35
2018-11-27T05:47:57.721Z,101537.14
2018-11-27T05:50:26.707Z,101534.42
2018-11-27T05:52:55.943Z,101540.43
2018-11-27T05:55:25.055Z,101539.84
2018-11-27T05:57:55.248Z,101533.66
2018-11-27T06:00:26.133Z,101543.33
2018-11-27T06:02:56.143Z,101545.66
2018-11-27T06:05:25.116Z,101547.17
2018-11-27T06:07:54.347Z,101551.86
2018-11-27T06:10:24.351Z,101563.88
2018-11-27T06:12:53.621Z,101561.45
2018-11-27T06:15:24.210Z,101571.84
2018-11-27T06:17:57.476Z,101574.85
2018-11-27T06:20:26.573Z,101574.84
2018-11-27T06:22:55.953Z,101582.18
2018-11-27T06:25:27.059Z,101585.19
2018-11-27T06:27:58.853Z,101596.92
2018-11-27T06:30:29.048Z,101607.23
2018-11-27T06:32:58.025Z,101603.67
2018-11-27T06:35:31.228Z,101604.89
2018-11-27T06:38:00.382Z,101607.98
2018-11-27T06:40:30.409Z,101613.50
2018-11-27T06:42:59.387Z,101620.36
2018-11-27T06:45:28.267Z,101622.23
2018-11-27T06:47:57.168Z,101622.52
2018-11-27T06:50:26.157Z,101619.98
2018-11-27T06:52:55.430Z,101617.94
2018-11-27T06:55:25.034Z,101619.59
2018-11-27T06:57:54.383Z,101621.02
2018-11-27T07:00:27.437Z,101626.37
2018-11-27T07:02:57.332Z,101637.73
2018-11-27T07:05:26.260Z,101634.89
2018-11-27T07:07:55.418Z,101634.44
2018-11-27T07:10:26.950Z,101638.96
2018-11-27T07:12:58.185Z,101644.22
2018-11-27T07:15:27.143Z,101650.20
2018-11-27T07:17:56.137Z,101644.94
2018-11-27T07:20:25.215Z,101649.09
2018-11-27T07:22:54.126Z,101647.78
2018-11-27T07:25:22.947Z,101648.88
2018-11-27T07:27:52.377Z,101650.58
2018-11-27T07:30:25.489Z,101649.81
2018-11-27T07:32:54.622Z,101655.45
2018-11-27T07:35:23.436Z,101663.92
2018-11-27T07:37:52.981Z,101664.85
2018-11-27T07:40:23.282Z,101666.63
2018-11-27T07:42:54.425Z,101666.16
2018-11-27T07:45:24.060Z,101670.66
2018-11-27T07:47:52.910Z,101670.66
2018-11-27T07:50:22.069Z,101676.11
2018-11-27T07:52:51.058Z,101681.84
2018-11-27T07:55:21.585Z,101680.06
2018-11-27T07:57:51.061Z,101683.06
2018-11-27T08:00:22.630Z,101687.94
2018-11-27T08:02:53.569Z,101683.80
2018-11-27T08:05:24.826Z,101681.55
2018-11-27T08:07:55.702Z,101688.11
2018-11-27T08:10:25.906Z,101684.00
2018-11-27T08:12:55.288Z,101678.52
2018-11-27T08:15:25.898Z,101689.71
2018-11-27T08:17:54.728Z,101699.55
2018-11-27T08:20:26.336Z,101697.67
2018-11-27T08:22:55.489Z,101700.78
2018-11-27T08:25:24.397Z,101705.58
2018-11-27T08:27:53.255Z,101708.75
2018-11-27T08:30:23.553Z,101712.91
2018-11-27T08:32:53.113Z,101716.26
2018-11-27T08:35:23.345Z,101719.84
2018-11-27T08:37:53.375Z,101723.95
2018-11-27T08:40:24.347Z,101724.16
2018-11-27T08:42:53.564Z,101734.08
2018-11-27T08:45:23.698Z,101732.95
2018-11-27T08:47:53.597Z,101733.70
2018-11-27T08:50:23.647Z,101737.00
2018-11-27T08:52:54.664Z,101745.34
2018-11-27T08:55:25.019Z,101741.59
2018-11-27T08:57:54.274Z,101750.21
2018-11-27T09:00:24.572Z,101749.25
2018-11-27T09:02:53.472Z,101748.48
2018-11-27T09:05:22.421Z,101752.24
2018-11-27T09:07:51.337Z,101764.42
2018-11-27T09:10:22.120Z,101764.13
2018-11-27T09:12:50.985Z,101765.02
2018-11-27T09:15:21.524Z,101772.18
2018-11-27T09:18:15.038Z,101777.06
2018-11-27T09:20:43.943Z,101780.56
2018-11-27T09:23:13.631Z,101793.73
2018-11-27T09:25:42.882Z,101781.05
2018-11-27T09:28:11.892Z,101778.05
2018-11-27T09:30:40.820Z,101784.79
2018-11-27T09:33:10.315Z,101787.69
2018-11-27T09:35:39.354Z,101793.69
2018-11-27T09:38:08.876Z,101788.02
2018-11-27T09:40:38.592Z,101790.73
2018-11-27T09:43:08.009Z,101789.95
2018-11-27T09:45:38.233Z,101790.86
2018-11-27T09:48:07.144Z,101792.75
2018-11-27T09:50:36.354Z,101794.34
2018-11-27T09:53:06.285Z,101791.80
2018-11-27T09:55:35.132Z,101794.06
2018-11-27T09:58:04.049Z,101790.48
2018-11-27T10:00:33.907Z,101807.23
2018-11-27T10:03:04.589Z,101802.87
2018-11-27T10:05:35.245Z,101807.70
2018-11-27T10:08:06.121Z,101812.06
2018-11-27T10:10:36.096Z,101812.85
2018-11-27T10:13:06.707Z,101813.95
2018-11-27T10:15:37.885Z,101814.70
2018-11-27T10:18:08.078Z,101806.83
2018-11-27T10:20:41.513Z,101817.84
2018-11-27T10:23:13.369Z,101812.29
2018-11-27T10:25:43.642Z,101814.05
2018-11-27T10:28:14.375Z,101807.52
2018-11-27T10:30:44.672Z,101805.88
2018-11-27T10:33:14.980Z,101810.97
2018-11-27T10:35:49.568Z,101805.44
2018-11-27T10:38:19.872Z,101822.56
2018-11-27T10:40:49.781Z,101812.16
2018-11-27T10:43:20.217Z,101808.61
2018-11-27T10:45:50.791Z,101814.35
2018-11-27T10:48:19.721Z,101825.52
2018-11-27T10:50:48.689Z,101829.97
2018-11-27T10:53:17.672Z,101821.16
2018-11-27T10:55:46.668Z,101820.59
2018-11-27T10:58:15.662Z,101820.06
2018-11-27T11:00:49.754Z,101815.84
2018-11-27T11:03:48.839Z,101824.70
2018-11-27T11:06:17.978Z,101816.87
2018-11-27T11:08:47.444Z,101821.36
2018-11-27T11:11:16.620Z,101826.45
2018-11-27T11:13:45.522Z,101831.91
2018-11-27T11:16:14.398Z,101835.78
2018-11-27T11:18:43.709Z,101837.74
2018-11-27T11:21:12.536Z,101837.74
2018-11-27T11:23:41.637Z,101845.23
2018-11-27T11:26:10.545Z,101843.49
2018-11-27T11:28:39.933Z,101835.72
2018-11-27T11:31:09.110Z,101847.30
2018-11-27T11:33:38.343Z,101848.99
2018-11-27T11:36:07.779Z,101849.42
2018-11-27T11:38:37.041Z,101854.32
2018-11-27T11:41:06.676Z,101850.41
2018-11-27T11:43:35.961Z,101849.31
2018-11-27T11:46:04.843Z,101857.05
2018-11-27T11:48:34.033Z,101854.41
2018-11-27T11:51:03.038Z,101862.61
2018-11-27T11:53:32.127Z,101869.62
2018-11-27T11:56:01.201Z,101872.94
2018-11-27T11:58:30.178Z,101872.36
2018-11-27T12:00:59.638Z,101870.95
2018-11-27T12:03:28.635Z,101872.41
2018-11-27T12:05:57.508Z,101870.15
2018-11-27T12:08:26.478Z,101877.39
2018-11-27T12:10:55.467Z,101871.26
2018-11-27T12:13:24.424Z,101871.48
2018-11-27T12:15:53.459Z,101880.03
2018-11-27T12:18:22.647Z,101878.72
2018-11-27T12:20:51.749Z,101874.95
2018-11-27T12:23:20.803Z,101875.75
2018-11-27T12:25:49.708Z,101876.50
2018-11-27T12:28:18.991Z,101880.46
2018-11-27T12:30:48.155Z,101890.17
2018-11-27T12:33:17.181Z,101888.15
2018-11-27T12:35:46.187Z,101892.58
2018-11-27T12:38:15.358Z,101881.73
2018-11-27T12:40:44.907Z,101889.09
2018-11-27T12:43:13.910Z,101888.00
2018-11-27T12:45:43.007Z,101885.74
2018-11-27T12:48:12.208Z,101889.89
2018-11-27T12:50:45.565Z,101890.84
2018-11-27T12:53:16.975Z,101893.43
2018-11-27T12:55:46.067Z,101893.47
2018-11-27T12:58:15.113Z,101893.80
2018-11-27T13:00:44.350Z,101889.79
2018-11-27T13:03:13.371Z,101896.39
2018-11-27T13:05:44.400Z,101902.52
2018-11-27T13:08:21.844Z,101902.86
2018-11-27T13:10:51.131Z,101897.34
2018-11-27T13:13:20.161Z,101898.33
2018-11-27T13:15:49.400Z,101901.63
2018-11-27T13:18:18.962Z,101898.66
2018-11-27T13:20:48.243Z,101904.98
2018-11-27T13:23:17.686Z,101903.98
2018-11-27T13:25:46.643Z,101905.78
2018-11-27T13:28:16.055Z,101904.87
2018-11-27T13:31:06.446Z,101910.34
2018-11-27T13:33:48.009Z,101916.79
2018-11-27T13:36:17.025Z,101915.20
2018-11-27T13:38:46.084Z,101919.52
2018-11-27T13:41:15.265Z,101912.93
2018-11-27T13:43:44.393Z,101911.63
2018-11-27T13:46:13.316Z,101915.25
2018-11-27T13:48:42.993Z,101916.98
2018-11-27T13:51:12.517Z,101916.79
2018-11-27T13:53:41.530Z,101918.30
2018-11-27T13:56:10.855Z,101918.13
2018-11-27T13:58:40.693Z,101918.67
2018-11-27T14:01:10.096Z,101918.53
2018-11-27T14:03:39.898Z,101925.08
2018-11-27T14:06:09.397Z,101931.36
2018-11-27T14:08:38.774Z,101927.16
2018-11-27T14:11:08.289Z,101932.63
2018-11-27T14:13:37.366Z,101930.70
2018-11-27T14:16:06.806Z,101933.19
2018-11-27T14:18:36.006Z,101922.30
2018-11-27T14:21:05.372Z,101930.59
2018-11-27T14:23:34.505Z,101932.06
2018-11-27T14:26:03.655Z,101933.56
2018-11-27T14:28:32.886Z,101930.97
2018-11-27T14:31:01.766Z,101926.73
2018-11-27T14:33:30.941Z,101929.93
2018-11-27T14:36:00.021Z,101930.70
2018-11-27T14:38:29.675Z,101932.06
2018-11-27T14:40:58.631Z,101940.77
2018-11-27T14:43:27.728Z,101943.81
2018-11-27T14:45:56.645Z,101938.73
2018-11-27T14:48:26.283Z,101941.36
2018-11-27T14:50:55.179Z,101943.91
2018-11-27T14:53:24.159Z,101940.73
2018-11-27T14:55:59.495Z,101948.73
2018-11-27T14:58:28.777Z,101948.33
2018-11-27T15:00:57.878Z,101943.25
2018-11-27T15:03:27.688Z,101943.44
2018-11-27T15:05:56.757Z,101935.84
2018-11-27T15:08:25.905Z,101943.84
2018-11-27T15:10:54.922Z,101956.63
2018-11-27T15:13:24.230Z,101962.46
2018-11-27T15:15:53.098Z,101961.45
2018-11-27T15:18:22.728Z,101968.33
2018-11-27T15:20:50.999Z,101962.40
2018-11-27T15:23:20.404Z,101966.45
2018-11-27T15:25:49.422Z,101967.95
2018-11-27T15:28:18.350Z,101966.66
2018-11-27T15:30:47.628Z,101979.47
2018-11-27T15:33:18.799Z,101982.46
2018-11-27T15:35:46.466Z,101977.38
2018-11-27T15:38:15.285Z,101974.95
2018-11-27T15:40:44.432Z,101969.94
2018-11-27T15:43:13.346Z,101976.92
2018-11-27T15:45:43.056Z,101979.88
2018-11-27T15:48:12.256Z,101978.17
2018-11-27T15:50:41.391Z,101978.09
2018-11-27T15:53:10.478Z,101979.12
2018-11-27T15:55:40.601Z,101984.39
2018-11-27T15:58:12.781Z,101983.07
2018-11-27T16:00:42.511Z,101972.33
2018-11-27T16:03:11.502Z,101982.31
2018-11-27T16:05:43.888Z,101982.98
2018-11-27T16:08:13.061Z,101984.10
2018-11-27T16:10:42.428Z,101993.64
2018-11-27T16:13:11.779Z,101994.20
2018-11-27T16:15:40.898Z,101994.11
2018-11-27T16:18:10.015Z,101991.95
2018-11-27T16:20:39.949Z,101996.19
2018-11-27T16:23:10.162Z,102002.18
2018-11-27T16:25:39.398Z,102007.30
2018-11-27T16:28:10.623Z,102012.85
2018-11-27T16:30:43.141Z,102024.34
2018-11-27T16:33:13.623Z,102025.26
2018-11-27T16:35:45.298Z,102022.52
2018-11-27T16:38:16.103Z,102022.60
2018-11-27T16:40:45.327Z,102036.08
2018-11-27T16:43:14.309Z,102037.06
2018-11-27T16:45:44.524Z,102038.88
2018-11-27T16:48:13.524Z,102035.61
2018-11-27T16:50:43.860Z,102040.97
2018-11-27T16:53:13.576Z,102048.48
2018-11-27T16:55:43.580Z,102045.09
2018-11-27T16:58:13.253Z,102047.95
2018-11-27T17:00:42.244Z,102052.84
2018-11-27T17:03:11.289Z,102049.91
2018-11-27T17:05:44.124Z,102053.58
2018-11-27T17:08:19.789Z,102058.77
2018-11-27T17:10:48.791Z,102056.59
2018-11-27T17:13:17.729Z,102057.06
2018-11-27T17:15:46.809Z,102060.91
2018-11-27T17:18:15.870Z,102054.61
2018-11-27T17:20:46.339Z,102061.00
2018-11-27T17:23:16.824Z,102068.56
2018-11-27T17:25:46.001Z,102064.78
2018-11-27T17:28:22.295Z,102060.35
2018-11-27T17:31:01.070Z,102059.34
2018-11-27T17:33:36.796Z,102066.86
2018-11-27T17:36:07.794Z,102073.34
2018-11-27T17:38:37.383Z,102083.08
2018-11-27T17:41:06.748Z,102086.81
2018-11-27T17:43:35.744Z,102092.29
2018-11-27T17:46:05.710Z,102086.64
2018-11-27T17:48:34.621Z,102093.88
2018-11-27T17:51:03.631Z,102093.03
2018-11-27T17:53:32.970Z,102095.41
2018-11-27T17:56:02.077Z,102096.26
2018-11-27T17:58:30.969Z,102096.98
2018-11-27T18:01:00.312Z,102096.05
2018-11-27T18:03:29.557Z,102091.53
2018-11-27T18:05:58.736Z,102092.17
2018-11-27T18:08:28.291Z,102086.26
2018-11-27T18:10:57.486Z,102081.75
2018-11-27T18:13:26.441Z,102092.66
2018-11-27T18:15:55.377Z,102090.98
2018-11-27T18:18:24.765Z,102097.56
2018-11-27T18:20:53.742Z,102092.77
2018-11-27T18:23:23.243Z,102090.59
2018-11-27T18:25:52.159Z,102094.92
2018-11-27T18:28:21.112Z,102102.72
2018-11-27T18:30:50.647Z,102102.62
2018-11-27T18:33:21.564Z,102099.45
2018-11-27T18:35:50.632Z,102096.72
2018-11-27T18:38:19.618Z,102100.85
2018-11-27T18:40:48.556Z,102094.71
2018-11-27T18:43:17.503Z,102098.97
2018-11-27T18:45:46.441Z,102094.55
2018-11-27T18:48:15.559Z,102093.41
2018-11-27T18:50:44.484Z,102088.98
2018-11-27T18:53:13.587Z,102089.28
2018-11-27T18:55:42.745Z,102106.05
2018-11-27T18:58:11.674Z,102103.02
2018-11-27T19:00:40.628Z,102099.73
2018-11-27T19:03:09.837Z,102101.69
2018-11-27T19:05:38.708Z,102098.39
2018-11-27T19:08:07.774Z,102094.92
2018-11-27T19:10:36.829Z,102098.97
2018-11-27T19:13:06.873Z,102105.48
2018-11-27T19:15:42.373Z,102107.63
2018-11-27T19:18:29.413Z,102114.59
2018-11-27T19:20:58.488Z,102115.45
2018-11-27T19:23:28.046Z,102121.31
2018-11-27T19:25:57.363Z,102117.53
2018-11-27T19:28:26.546Z,102122.98
2018-11-27T19:30:55.707Z,102124.87
2018-11-27T19:33:24.613Z,102128.08
2018-11-27T19:35:54.160Z,102124.03
2018-11-27T19:38:23.280Z,102130.72
2018-11-27T19:40:52.783Z,102126.77
2018-11-27T19:43:21.878Z,102119.61
2018-11-27T19:45:51.672Z,102122.72
2018-11-27T19:48:21.062Z,102127.14
2018-11-27T19:50:53.260Z,102128.93
2018-11-27T19:53:22.434Z,102139.02
2018-11-27T19:55:52.007Z,102143.99
2018-11-27T19:58:21.229Z,102150.59
2018-11-27T20:00:50.876Z,102151.52
2018-11-27T20:03:19.949Z,102149.01
2018-11-27T20:05:51.665Z,102148.33
2018-11-27T20:08:20.730Z,102149.09
2018-11-27T20:10:58.081Z,102148.03
2018-11-27T20:13:28.589Z,102149.27
2018-11-27T20:15:59.723Z,102151.43
2018-11-27T20:18:30.707Z,102153.30
2018-11-27T20:21:00.477Z,102160.37
2018-11-27T20:23:29.789Z,102166.70
2018-11-27T20:25:59.548Z,102163.30
2018-11-27T20:28:29.349Z,102158.97
2018-11-27T20:30:58.740Z,102162.36
2018-11-27T20:33:28.285Z,102166.41
2018-11-27T20:35:57.742Z,102168.02
2018-11-27T20:38:27.240Z,102165.94
2018-11-27T20:40:56.499Z,102169.33
2018-11-27T20:43:25.586Z,102173.38
2018-11-27T20:45:54.782Z,102169.52
2018-11-27T20:48:23.660Z,102171.97
2018-11-27T20:50:53.114Z,102172.15
2018-11-27T20:53:23.407Z,102179.50
2018-11-27T20:55:52.725Z,102183.55
2018-11-27T20:58:22.239Z,102190.61
2018-11-27T21:00:52.428Z,102188.91
2018-11-27T21:03:21.321Z,102193.83
2018-11-27T21:05:50.210Z,102187.33
2018-11-27T21:08:19.137Z,102190.81
2018-11-27T21:10:48.462Z,102194.39
2018-11-27T21:13:17.407Z,102196.47
2018-11-27T21:15:46.341Z,102206.64
2018-11-27T21:18:15.167Z,102208.34
2018-11-27T21:20:44.611Z,102207.11
2018-11-27T21:23:13.799Z,102210.69
2018-11-27T21:25:42.916Z,102211.91
2018-11-27T21:28:14.627Z,102208.12
2018-11-27T21:30:44.796Z,102204.38
2018-11-27T21:33:13.745Z,102200.22
2018-11-27T21:35:42.645Z,102202.01
2018-11-27T21:38:18.229Z,102202.77
2018-11-27T21:40:48.674Z,102202.09
2018-11-27T21:43:18.289Z,102201.37
2018-11-27T21:45:47.409Z,102200.22
2018-11-27T21:48:16.964Z,102211.70
2018-11-27T21:50:46.280Z,102206.52
2018-11-27T21:53:15.405Z,102206.90
2018-11-27T21:55:44.903Z,102210.94
2018-11-27T21:58:14.627Z,102206.52
2018-11-27T22:00:44.131Z,102218.12
2018-11-27T22:03:13.596Z,102224.04
2018-11-27T22:05:42.556Z,102224.89
2018-11-27T22:08:11.548Z,102224.72
2018-11-27T22:10:41.076Z,102229.99
2018-11-27T22:13:13.051Z,102232.25
2018-11-27T22:15:43.407Z,102232.42
2018-11-27T22:18:13.642Z,102234.13
2018-11-27T22:20:44.299Z,102241.56
2018-11-27T22:23:13.535Z,102242.12
2018-11-27T22:25:42.595Z,102249.95
2018-11-27T22:28:11.656Z,102249.01
2018-11-27T22:30:40.541Z,102244.67
2018-11-27T22:33:09.643Z,102247.31
2018-11-27T22:35:39.003Z,102254.96
2018-11-27T22:38:08.878Z,102263.14
2018-11-27T22:40:38.136Z,102260.70
2018-11-27T22:43:08.627Z,102256.75
2018-11-27T22:45:39.736Z,102269.09
2018-11-27T22:48:10.071Z,102277.47
2018-11-27T22:50:40.104Z,102273.52
2018-11-27T22:53:10.186Z,102274.83
2018-11-27T22:55:39.081Z,102269.94
2018-11-27T22:58:08.865Z,102269.94
2018-11-27T23:00:43.002Z,102272.38
2018-11-27T23:03:11.874Z,102275.77
2018-11-27T23:05:40.784Z,102269.00
2018-11-27T23:08:09.867Z,102269.09
2018-11-27T23:10:39.817Z,102268.62
2018-11-27T23:13:09.002Z,102273.22
2018-11-27T23:15:37.976Z,102280.19
2018-11-27T23:18:07.175Z,102288.96
2018-11-27T23:20:36.943Z,102288.02
2018-11-27T23:23:06.288Z,102288.20
2018-11-27T23:25:35.488Z,102279.44
2018-11-27T23:28:04.449Z,102275.01
2018-11-27T23:30:33.419Z,102270.50
2018-11-27T23:33:02.363Z,102268.72
2018-11-27T23:35:31.282Z,102271.64
2018-11-27T23:38:00.668Z,102264.37
2018-11-27T23:40:31.771Z,102264.45
2018-11-27T23:43:01.311Z,102275.39
2018-11-27T23:45:30.130Z,102275.77
2018-11-27T23:47:58.983Z,102273.22
2018-11-27T23:50:27.849Z,102275.77
2018-11-27T23:52:56.807Z,102275.95
2018-11-27T23:55:25.691Z,102279.73
2018-11-27T23:57:54.700Z,102277.65
